sensor_id;sensor_type;location;lat;lon;timestamp;P1;durP1;ratioP1;P2;durP2;ratioP2
7076;SDS011;3579;48.956;9.154;2023-05-16T00:01:14;1.57;;;1.47;;
7076;SDS011;3579;48.956;9.154;2023-05-16T00:03:41;1.47;;;1.37;;
7076;SDS011;3579;48.956;9.154;2023-05-16T00:06:07;1.67;;;1.57;;
7076;SDS011;3579;48.956;9.154;2023-05-16T00:08:34;1.70;;;1.60;;
7076;SDS011;3579;48.956;9.154;2023-05-16T00:11:00;1.77;;;1.67;;
7076;SDS011;3579;48.956;9.154;2023-05-16T00:13:27;1.60;;;1.50;;
7076;SDS011;3579;48.956;9.154;2023-05-16T00:15:54;1.73;;;1.63;;
7076;SDS011;3579;48.956;9.154;2023-05-16T00:18:21;1.83;;;1.43;;
7076;SDS011;3579;48.956;9.154;2023-05-16T00:20:48;1.70;;;1.60;;
7076;SDS011;3579;48.956;9.154;2023-05-16T00:23:16;1.60;;;1.50;;
7076;SDS011;3579;48.956;9.154;2023-05-16T00:25:42;1.70;;;1.60;;
7076;SDS011;3579;48.956;9.154;2023-05-16T00:28:08;1.73;;;1.63;;
7076;SDS011;3579;48.956;9.154;2023-05-16T00:30:34;1.60;;;1.50;;
7076;SDS011;3579;48.956;9.154;2023-05-16T00:33:00;1.60;;;1.50;;
7076;SDS011;3579;48.956;9.154;2023-05-16T00:35:26;1.60;;;1.50;;
7076;SDS011;3579;48.956;9.154;2023-05-16T00:37:52;1.70;;;1.60;;
7076;SDS011;3579;48.956;9.154;2023-05-16T00:40:18;1.60;;;1.50;;
7076;SDS011;3579;48.956;9.154;2023-05-16T00:42:45;1.50;;;1.40;;
7076;SDS011;3579;48.956;9.154;2023-05-16T00:45:12;1.80;;;1.53;;
7076;SDS011;3579;48.956;9.154;2023-05-16T00:47:38;1.60;;;1.47;;
7076;SDS011;3579;48.956;9.154;2023-05-16T00:50:04;1.90;;;1.30;;
7076;SDS011;3579;48.956;9.154;2023-05-16T00:52:30;1.50;;;1.40;;
7076;SDS011;3579;48.956;9.154;2023-05-16T00:54:58;1.67;;;1.50;;
7076;SDS011;3579;48.956;9.154;2023-05-16T00:57:24;1.60;;;1.50;;
7076;SDS011;3579;48.956;9.154;2023-05-16T00:59:50;1.50;;;1.40;;
7076;SDS011;3579;48.956;9.154;2023-05-16T01:02:16;1.67;;;1.57;;
7076;SDS011;3579;48.956;9.154;2023-05-16T01:04:42;1.53;;;1.43;;
7076;SDS011;3579;48.956;9.154;2023-05-16T01:07:09;1.77;;;1.50;;
7076;SDS011;3579;48.956;9.154;2023-05-16T01:09:35;1.20;;;1.10;;
7076;SDS011;3579;48.956;9.154;2023-05-16T01:12:08;1.50;;;1.40;;
7076;SDS011;3579;48.956;9.154;2023-05-16T01:26:14;1.60;;;1.50;;
7076;SDS011;3579;48.956;9.154;2023-05-16T01:28:47;1.70;;;1.60;;
7076;SDS011;3579;48.956;9.154;2023-05-16T01:31:15;1.70;;;1.60;;
7076;SDS011;3579;48.956;9.154;2023-05-16T01:33:41;1.90;;;1.50;;
7076;SDS011;3579;48.956;9.154;2023-05-16T01:36:24;1.30;;;1.20;;
7076;SDS011;3579;48.956;9.154;2023-05-16T01:46:56;1.60;;;1.50;;
7076;SDS011;3579;48.956;9.154;2023-05-16T01:52:06;1.43;;;1.33;;
7076;SDS011;3579;48.956;9.154;2023-05-16T01:54:36;1.53;;;1.43;;
7076;SDS011;3579;48.956;9.154;2023-05-16T01:57:03;1.30;;;1.20;;
7076;SDS011;3579;48.956;9.154;2023-05-16T01:59:32;1.60;;;1.40;;
7076;SDS011;3579;48.956;9.154;2023-05-16T02:01:59;1.30;;;1.20;;
7076;SDS011;3579;48.956;9.154;2023-05-16T02:04:25;1.40;;;1.30;;
7076;SDS011;3579;48.956;9.154;2023-05-16T02:06:51;1.50;;;1.40;;
7076;SDS011;3579;48.956;9.154;2023-05-16T02:09:17;1.30;;;1.20;;
7076;SDS011;3579;48.956;9.154;2023-05-16T02:11:43;2.57;;;1.20;;
7076;SDS011;3579;48.956;9.154;2023-05-16T02:14:11;1.30;;;1.20;;
7076;SDS011;3579;48.956;9.154;2023-05-16T02:16:37;1.50;;;1.40;;
7076;SDS011;3579;48.956;9.154;2023-05-16T02:19:03;1.33;;;1.23;;
7076;SDS011;3579;48.956;9.154;2023-05-16T02:21:29;1.40;;;1.30;;
7076;SDS011;3579;48.956;9.154;2023-05-16T02:23:55;1.50;;;1.40;;
7076;SDS011;3579;48.956;9.154;2023-05-16T02:26:21;1.40;;;1.30;;
7076;SDS011;3579;48.956;9.154;2023-05-16T02:28:47;1.50;;;1.40;;
7076;SDS011;3579;48.956;9.154;2023-05-16T02:31:29;1.47;;;1.37;;
7076;SDS011;3579;48.956;9.154;2023-05-16T02:33:57;1.60;;;1.50;;
7076;SDS011;3579;48.956;9.154;2023-05-16T02:36:24;1.50;;;1.40;;
7076;SDS011;3579;48.956;9.154;2023-05-16T02:38:51;1.63;;;1.43;;
7076;SDS011;3579;48.956;9.154;2023-05-16T02:41:17;1.40;;;1.30;;
7076;SDS011;3579;48.956;9.154;2023-05-16T02:43:43;1.50;;;1.40;;
7076;SDS011;3579;48.956;9.154;2023-05-16T02:46:25;1.57;;;1.47;;
7076;SDS011;3579;48.956;9.154;2023-05-16T02:48:53;1.47;;;1.37;;
7076;SDS011;3579;48.956;9.154;2023-05-16T02:51:19;1.30;;;1.20;;
7076;SDS011;3579;48.956;9.154;2023-05-16T02:53:47;1.40;;;1.30;;
7076;SDS011;3579;48.956;9.154;2023-05-16T02:56:14;1.40;;;1.30;;
7076;SDS011;3579;48.956;9.154;2023-05-16T02:58:40;1.40;;;1.30;;
7076;SDS011;3579;48.956;9.154;2023-05-16T03:01:07;1.33;;;1.23;;
7076;SDS011;3579;48.956;9.154;2023-05-16T03:03:34;1.63;;;1.53;;
7076;SDS011;3579;48.956;9.154;2023-05-16T03:06:01;1.47;;;1.37;;
7076;SDS011;3579;48.956;9.154;2023-05-16T03:08:28;1.50;;;1.40;;
7076;SDS011;3579;48.956;9.154;2023-05-16T03:10:54;1.33;;;1.23;;
7076;SDS011;3579;48.956;9.154;2023-05-16T03:13:20;1.33;;;1.23;;
7076;SDS011;3579;48.956;9.154;2023-05-16T03:15:47;1.63;;;1.40;;
7076;SDS011;3579;48.956;9.154;2023-05-16T03:18:13;1.50;;;1.40;;
7076;SDS011;3579;48.956;9.154;2023-05-16T03:20:39;1.40;;;1.30;;
7076;SDS011;3579;48.956;9.154;2023-05-16T03:23:05;1.37;;;1.27;;
7076;SDS011;3579;48.956;9.154;2023-05-16T03:25:33;1.50;;;1.40;;
7076;SDS011;3579;48.956;9.154;2023-05-16T03:28:01;1.30;;;1.20;;
7076;SDS011;3579;48.956;9.154;2023-05-16T03:30:27;1.40;;;1.30;;
7076;SDS011;3579;48.956;9.154;2023-05-16T03:32:53;1.20;;;1.10;;
7076;SDS011;3579;48.956;9.154;2023-05-16T03:35:20;1.50;;;1.40;;
7076;SDS011;3579;48.956;9.154;2023-05-16T03:37:46;1.30;;;1.20;;
7076;SDS011;3579;48.956;9.154;2023-05-16T03:40:12;1.20;;;1.10;;
7076;SDS011;3579;48.956;9.154;2023-05-16T03:42:38;1.50;;;1.40;;
7076;SDS011;3579;48.956;9.154;2023-05-16T03:45:04;1.30;;;1.10;;
7076;SDS011;3579;48.956;9.154;2023-05-16T03:47:31;1.30;;;1.20;;
7076;SDS011;3579;48.956;9.154;2023-05-16T03:49:57;1.40;;;1.30;;
7076;SDS011;3579;48.956;9.154;2023-05-16T03:52:23;1.37;;;1.27;;
7076;SDS011;3579;48.956;9.154;2023-05-16T03:54:49;1.37;;;1.27;;
7076;SDS011;3579;48.956;9.154;2023-05-16T03:57:15;1.23;;;1.13;;
7076;SDS011;3579;48.956;9.154;2023-05-16T03:59:42;1.40;;;1.30;;
7076;SDS011;3579;48.956;9.154;2023-05-16T04:02:08;1.30;;;1.20;;
7076;SDS011;3579;48.956;9.154;2023-05-16T04:04:34;1.43;;;1.33;;
7076;SDS011;3579;48.956;9.154;2023-05-16T04:07:00;1.50;;;1.40;;
7076;SDS011;3579;48.956;9.154;2023-05-16T04:09:27;1.20;;;1.10;;
7076;SDS011;3579;48.956;9.154;2023-05-16T04:11:53;1.40;;;1.30;;
7076;SDS011;3579;48.956;9.154;2023-05-16T04:14:22;1.50;;;1.40;;
7076;SDS011;3579;48.956;9.154;2023-05-16T04:16:48;1.30;;;1.20;;
7076;SDS011;3579;48.956;9.154;2023-05-16T04:19:14;1.20;;;1.10;;
7076;SDS011;3579;48.956;9.154;2023-05-16T04:21:40;1.30;;;1.20;;
7076;SDS011;3579;48.956;9.154;2023-05-16T04:24:06;1.40;;;1.30;;
7076;SDS011;3579;48.956;9.154;2023-05-16T04:26:33;1.60;;;1.40;;
7076;SDS011;3579;48.956;9.154;2023-05-16T04:28:59;1.50;;;1.23;;
7076;SDS011;3579;48.956;9.154;2023-05-16T04:31:25;1.43;;;1.30;;
7076;SDS011;3579;48.956;9.154;2023-05-16T04:33:51;1.47;;;1.37;;
7076;SDS011;3579;48.956;9.154;2023-05-16T04:36:17;1.40;;;1.30;;
7076;SDS011;3579;48.956;9.154;2023-05-16T04:38:43;1.30;;;1.20;;
7076;SDS011;3579;48.956;9.154;2023-05-16T04:41:11;1.40;;;1.30;;
7076;SDS011;3579;48.956;9.154;2023-05-16T04:43:37;1.40;;;1.30;;
7076;SDS011;3579;48.956;9.154;2023-05-16T04:46:04;1.40;;;1.30;;
7076;SDS011;3579;48.956;9.154;2023-05-16T04:48:32;1.40;;;1.30;;
7076;SDS011;3579;48.956;9.154;2023-05-16T04:50:58;1.27;;;1.17;;
7076;SDS011;3579;48.956;9.154;2023-05-16T04:53:24;1.30;;;1.20;;
7076;SDS011;3579;48.956;9.154;2023-05-16T04:55:51;1.40;;;1.20;;
7076;SDS011;3579;48.956;9.154;2023-05-16T04:58:17;1.30;;;1.20;;
7076;SDS011;3579;48.956;9.154;2023-05-16T05:00:43;1.40;;;1.30;;
7076;SDS011;3579;48.956;9.154;2023-05-16T05:03:09;1.43;;;1.33;;
7076;SDS011;3579;48.956;9.154;2023-05-16T05:05:35;1.40;;;1.30;;
7076;SDS011;3579;48.956;9.154;2023-05-16T05:08:01;1.30;;;1.20;;
7076;SDS011;3579;48.956;9.154;2023-05-16T05:10:27;1.27;;;1.17;;
7076;SDS011;3579;48.956;9.154;2023-05-16T05:12:56;1.30;;;1.20;;
7076;SDS011;3579;48.956;9.154;2023-05-16T05:15:22;1.40;;;1.30;;
7076;SDS011;3579;48.956;9.154;2023-05-16T05:17:49;1.23;;;1.13;;
7076;SDS011;3579;48.956;9.154;2023-05-16T05:20:15;1.80;;;1.23;;
7076;SDS011;3579;48.956;9.154;2023-05-16T05:22:41;1.20;;;1.10;;
7076;SDS011;3579;48.956;9.154;2023-05-16T05:25:07;1.40;;;1.20;;
7076;SDS011;3579;48.956;9.154;2023-05-16T05:27:33;1.33;;;1.23;;
7076;SDS011;3579;48.956;9.154;2023-05-16T05:30:00;1.30;;;1.20;;
7076;SDS011;3579;48.956;9.154;2023-05-16T05:32:26;1.30;;;1.20;;
7076;SDS011;3579;48.956;9.154;2023-05-16T05:34:52;1.40;;;1.30;;
7076;SDS011;3579;48.956;9.154;2023-05-16T05:37:18;1.20;;;1.10;;
7076;SDS011;3579;48.956;9.154;2023-05-16T05:39:44;1.20;;;1.10;;
7076;SDS011;3579;48.956;9.154;2023-05-16T05:42:10;1.30;;;1.20;;
7076;SDS011;3579;48.956;9.154;2023-05-16T05:44:36;1.33;;;1.23;;
7076;SDS011;3579;48.956;9.154;2023-05-16T05:47:03;1.40;;;1.30;;
7076;SDS011;3579;48.956;9.154;2023-05-16T05:49:30;1.40;;;1.30;;
7076;SDS011;3579;48.956;9.154;2023-05-16T05:51:56;1.30;;;1.20;;
7076;SDS011;3579;48.956;9.154;2023-05-16T05:54:22;1.37;;;1.27;;
7076;SDS011;3579;48.956;9.154;2023-05-16T05:56:49;1.30;;;1.20;;
7076;SDS011;3579;48.956;9.154;2023-05-16T05:59:15;1.40;;;1.30;;
7076;SDS011;3579;48.956;9.154;2023-05-16T06:01:41;1.30;;;1.20;;
7076;SDS011;3579;48.956;9.154;2023-05-16T06:04:09;1.20;;;1.10;;
7076;SDS011;3579;48.956;9.154;2023-05-16T06:06:36;1.40;;;1.30;;
7076;SDS011;3579;48.956;9.154;2023-05-16T06:09:02;1.30;;;1.20;;
7076;SDS011;3579;48.956;9.154;2023-05-16T06:11:28;1.27;;;1.17;;
7076;SDS011;3579;48.956;9.154;2023-05-16T06:13:54;1.30;;;1.20;;
7076;SDS011;3579;48.956;9.154;2023-05-16T06:16:26;1.40;;;1.30;;
7076;SDS011;3579;48.956;9.154;2023-05-16T06:18:52;1.30;;;1.20;;
7076;SDS011;3579;48.956;9.154;2023-05-16T06:21:18;1.40;;;1.30;;
7076;SDS011;3579;48.956;9.154;2023-05-16T06:23:44;1.23;;;1.13;;
7076;SDS011;3579;48.956;9.154;2023-05-16T06:26:10;1.30;;;1.20;;
7076;SDS011;3579;48.956;9.154;2023-05-16T06:28:36;1.50;;;1.40;;
7076;SDS011;3579;48.956;9.154;2023-05-16T06:31:02;1.40;;;1.30;;
7076;SDS011;3579;48.956;9.154;2023-05-16T06:33:28;1.33;;;1.23;;
7076;SDS011;3579;48.956;9.154;2023-05-16T06:35:54;1.33;;;1.23;;
7076;SDS011;3579;48.956;9.154;2023-05-16T06:38:22;1.30;;;1.20;;
7076;SDS011;3579;48.956;9.154;2023-05-16T06:40:48;1.60;;;1.30;;
7076;SDS011;3579;48.956;9.154;2023-05-16T06:43:14;1.50;;;1.40;;
7076;SDS011;3579;48.956;9.154;2023-05-16T06:45:40;1.47;;;1.37;;
7076;SDS011;3579;48.956;9.154;2023-05-16T06:48:06;1.00;;;1.00;;
7076;SDS011;3579;48.956;9.154;2023-05-16T06:50:33;1.40;;;1.30;;
7076;SDS011;3579;48.956;9.154;2023-05-16T06:53:02;1.20;;;1.10;;
7076;SDS011;3579;48.956;9.154;2023-05-16T06:55:29;1.50;;;1.40;;
7076;SDS011;3579;48.956;9.154;2023-05-16T06:57:55;1.33;;;1.23;;
7076;SDS011;3579;48.956;9.154;2023-05-16T07:00:21;1.30;;;1.20;;
7076;SDS011;3579;48.956;9.154;2023-05-16T07:02:47;1.40;;;1.30;;
7076;SDS011;3579;48.956;9.154;2023-05-16T07:05:13;1.30;;;1.20;;
7076;SDS011;3579;48.956;9.154;2023-05-16T07:07:39;1.60;;;1.30;;
7076;SDS011;3579;48.956;9.154;2023-05-16T07:10:06;1.40;;;1.30;;
7076;SDS011;3579;48.956;9.154;2023-05-16T07:12:32;1.30;;;1.20;;
7076;SDS011;3579;48.956;9.154;2023-05-16T07:15:00;1.33;;;1.23;;
7076;SDS011;3579;48.956;9.154;2023-05-16T07:17:26;1.50;;;1.40;;
7076;SDS011;3579;48.956;9.154;2023-05-16T07:19:52;1.50;;;1.40;;
7076;SDS011;3579;48.956;9.154;2023-05-16T07:22:18;1.40;;;1.30;;
7076;SDS011;3579;48.956;9.154;2023-05-16T07:24:44;1.30;;;1.20;;
7076;SDS011;3579;48.956;9.154;2023-05-16T07:27:10;1.50;;;1.40;;
7076;SDS011;3579;48.956;9.154;2023-05-16T07:29:36;1.40;;;1.30;;
7076;SDS011;3579;48.956;9.154;2023-05-16T07:32:03;1.63;;;1.53;;
7076;SDS011;3579;48.956;9.154;2023-05-16T07:34:29;1.30;;;1.20;;
7076;SDS011;3579;48.956;9.154;2023-05-16T07:36:55;1.30;;;1.20;;
7076;SDS011;3579;48.956;9.154;2023-05-16T07:39:21;1.50;;;1.20;;
7076;SDS011;3579;48.956;9.154;2023-05-16T07:41:47;1.40;;;1.30;;
7076;SDS011;3579;48.956;9.154;2023-05-16T07:44:15;1.40;;;1.30;;
7076;SDS011;3579;48.956;9.154;2023-05-16T07:46:40;1.50;;;1.40;;
7076;SDS011;3579;48.956;9.154;2023-05-16T07:49:09;1.30;;;1.20;;
7076;SDS011;3579;48.956;9.154;2023-05-16T07:51:35;1.47;;;1.37;;
7076;SDS011;3579;48.956;9.154;2023-05-16T07:54:01;1.13;;;1.03;;
7076;SDS011;3579;48.956;9.154;2023-05-16T07:56:27;1.30;;;1.20;;
7076;SDS011;3579;48.956;9.154;2023-05-16T07:58:53;1.40;;;1.30;;
7076;SDS011;3579;48.956;9.154;2023-05-16T08:01:20;2.03;;;1.40;;
7076;SDS011;3579;48.956;9.154;2023-05-16T08:03:46;1.37;;;1.27;;
7076;SDS011;3579;48.956;9.154;2023-05-16T08:06:12;1.50;;;1.40;;
7076;SDS011;3579;48.956;9.154;2023-05-16T08:08:39;1.50;;;1.40;;
7076;SDS011;3579;48.956;9.154;2023-05-16T08:11:05;1.80;;;1.23;;
7076;SDS011;3579;48.956;9.154;2023-05-16T08:13:31;1.63;;;1.43;;
7076;SDS011;3579;48.956;9.154;2023-05-16T08:15:57;1.57;;;1.47;;
7076;SDS011;3579;48.956;9.154;2023-05-16T08:18:23;1.50;;;1.40;;
7076;SDS011;3579;48.956;9.154;2023-05-16T08:20:49;1.43;;;1.33;;
7076;SDS011;3579;48.956;9.154;2023-05-16T08:23:15;1.33;;;1.20;;
7076;SDS011;3579;48.956;9.154;2023-05-16T08:25:41;1.63;;;1.53;;
7076;SDS011;3579;48.956;9.154;2023-05-16T08:28:08;1.50;;;1.40;;
7076;SDS011;3579;48.956;9.154;2023-05-16T08:30:34;1.27;;;1.17;;
7076;SDS011;3579;48.956;9.154;2023-05-16T08:33:00;1.50;;;1.40;;
7076;SDS011;3579;48.956;9.154;2023-05-16T08:35:29;1.93;;;1.40;;
7076;SDS011;3579;48.956;9.154;2023-05-16T08:37:56;1.50;;;1.40;;
7076;SDS011;3579;48.956;9.154;2023-05-16T08:40:24;1.50;;;1.40;;
7076;SDS011;3579;48.956;9.154;2023-05-16T08:42:51;1.87;;;1.57;;
7076;SDS011;3579;48.956;9.154;2023-05-16T08:45:18;1.60;;;1.50;;
7076;SDS011;3579;48.956;9.154;2023-05-16T08:47:45;1.50;;;1.40;;
7076;SDS011;3579;48.956;9.154;2023-05-16T08:50:16;1.60;;;1.50;;
7076;SDS011;3579;48.956;9.154;2023-05-16T08:52:42;1.53;;;1.43;;
7076;SDS011;3579;48.956;9.154;2023-05-16T08:55:09;1.40;;;1.30;;
7076;SDS011;3579;48.956;9.154;2023-05-16T08:57:36;1.60;;;1.50;;
7076;SDS011;3579;48.956;9.154;2023-05-16T09:00:05;1.50;;;1.40;;
7076;SDS011;3579;48.956;9.154;2023-05-16T09:02:42;1.67;;;1.57;;
7076;SDS011;3579;48.956;9.154;2023-05-16T09:05:11;1.53;;;1.43;;
7076;SDS011;3579;48.956;9.154;2023-05-16T09:07:40;1.43;;;1.33;;
7076;SDS011;3579;48.956;9.154;2023-05-16T09:10:07;2.70;;;1.43;;
7076;SDS011;3579;48.956;9.154;2023-05-16T09:12:34;1.40;;;1.30;;
7076;SDS011;3579;48.956;9.154;2023-05-16T09:15:01;1.83;;;1.50;;
7076;SDS011;3579;48.956;9.154;2023-05-16T09:17:39;1.40;;;1.30;;
7076;SDS011;3579;48.956;9.154;2023-05-16T09:20:14;1.83;;;1.70;;
7076;SDS011;3579;48.956;9.154;2023-05-16T09:22:56;1.63;;;1.53;;
7076;SDS011;3579;48.956;9.154;2023-05-16T09:25:27;2.00;;;1.70;;
7076;SDS011;3579;48.956;9.154;2023-05-16T09:27:55;1.80;;;1.70;;
7076;SDS011;3579;48.956;9.154;2023-05-16T09:30:22;1.63;;;1.53;;
7076;SDS011;3579;48.956;9.154;2023-05-16T09:32:52;1.70;;;1.60;;
7076;SDS011;3579;48.956;9.154;2023-05-16T09:35:18;1.80;;;1.70;;
7076;SDS011;3579;48.956;9.154;2023-05-16T09:37:48;1.80;;;1.60;;
7076;SDS011;3579;48.956;9.154;2023-05-16T09:40:23;1.70;;;1.60;;
7076;SDS011;3579;48.956;9.154;2023-05-16T09:43:02;2.27;;;1.70;;
7076;SDS011;3579;48.956;9.154;2023-05-16T09:45:30;1.60;;;1.50;;
7076;SDS011;3579;48.956;9.154;2023-05-16T09:48:03;2.00;;;1.80;;
7076;SDS011;3579;48.956;9.154;2023-05-16T09:50:34;1.53;;;1.43;;
7076;SDS011;3579;48.956;9.154;2023-05-16T09:53:01;2.33;;;1.70;;
7076;SDS011;3579;48.956;9.154;2023-05-16T09:55:28;1.70;;;1.60;;
7076;SDS011;3579;48.956;9.154;2023-05-16T09:57:55;1.70;;;1.60;;
7076;SDS011;3579;48.956;9.154;2023-05-16T10:00:21;1.80;;;1.70;;
7076;SDS011;3579;48.956;9.154;2023-05-16T10:02:47;2.07;;;1.60;;
7076;SDS011;3579;48.956;9.154;2023-05-16T10:05:15;1.60;;;1.50;;
7076;SDS011;3579;48.956;9.154;2023-05-16T10:07:42;1.70;;;1.60;;
7076;SDS011;3579;48.956;9.154;2023-05-16T10:10:09;1.80;;;1.70;;
7076;SDS011;3579;48.956;9.154;2023-05-16T10:12:37;1.70;;;1.60;;
7076;SDS011;3579;48.956;9.154;2023-05-16T10:15:05;3.80;;;1.90;;
7076;SDS011;3579;48.956;9.154;2023-05-16T10:17:33;2.03;;;1.83;;
7076;SDS011;3579;48.956;9.154;2023-05-16T10:20:01;1.97;;;1.83;;
7076;SDS011;3579;48.956;9.154;2023-05-16T10:22:34;2.60;;;2.13;;
7076;SDS011;3579;48.956;9.154;2023-05-16T10:27:37;2.20;;;1.80;;
7076;SDS011;3579;48.956;9.154;2023-05-16T10:30:05;2.30;;;1.80;;
7076;SDS011;3579;48.956;9.154;2023-05-16T10:32:34;2.60;;;1.90;;
7076;SDS011;3579;48.956;9.154;2023-05-16T10:35:04;1.90;;;1.80;;
7076;SDS011;3579;48.956;9.154;2023-05-16T10:37:31;2.20;;;2.00;;
7076;SDS011;3579;48.956;9.154;2023-05-16T10:39:58;2.07;;;1.80;;
7076;SDS011;3579;48.956;9.154;2023-05-16T10:42:26;1.70;;;1.60;;
7076;SDS011;3579;48.956;9.154;2023-05-16T10:45:07;2.20;;;2.00;;
7076;SDS011;3579;48.956;9.154;2023-05-16T10:47:53;2.43;;;1.80;;
7076;SDS011;3579;48.956;9.154;2023-05-16T10:50:32;2.50;;;1.70;;
7076;SDS011;3579;48.956;9.154;2023-05-16T10:55:44;2.10;;;1.90;;
7076;SDS011;3579;48.956;9.154;2023-05-16T10:58:22;2.70;;;2.23;;
7076;SDS011;3579;48.956;9.154;2023-05-16T11:01:07;2.33;;;2.13;;
7076;SDS011;3579;48.956;9.154;2023-05-16T11:06:27;2.00;;;1.80;;
7076;SDS011;3579;48.956;9.154;2023-05-16T11:08:56;2.20;;;2.00;;
7076;SDS011;3579;48.956;9.154;2023-05-16T11:11:43;2.10;;;1.90;;
7076;SDS011;3579;48.956;9.154;2023-05-16T11:17:19;2.10;;;1.90;;
7076;SDS011;3579;48.956;9.154;2023-05-16T11:19:50;2.43;;;2.00;;
7076;SDS011;3579;48.956;9.154;2023-05-16T11:25:06;2.30;;;1.93;;
7076;SDS011;3579;48.956;9.154;2023-05-16T11:27:35;2.20;;;1.93;;
7076;SDS011;3579;48.956;9.154;2023-05-16T11:32:37;1.90;;;1.73;;
7076;SDS011;3579;48.956;9.154;2023-05-16T11:35:04;2.20;;;2.00;;
7076;SDS011;3579;48.956;9.154;2023-05-16T11:37:33;2.03;;;1.83;;
7076;SDS011;3579;48.956;9.154;2023-05-16T11:40:06;2.77;;;1.93;;
7076;SDS011;3579;48.956;9.154;2023-05-16T11:42:35;2.00;;;1.80;;
7076;SDS011;3579;48.956;9.154;2023-05-16T11:47:42;2.13;;;1.90;;
7076;SDS011;3579;48.956;9.154;2023-05-16T11:50:16;2.10;;;1.90;;
7076;SDS011;3579;48.956;9.154;2023-05-16T11:52:45;2.00;;;1.80;;
7076;SDS011;3579;48.956;9.154;2023-05-16T11:55:13;2.20;;;2.00;;
7076;SDS011;3579;48.956;9.154;2023-05-16T11:57:42;1.83;;;1.73;;
7076;SDS011;3579;48.956;9.154;2023-05-16T12:00:15;2.50;;;2.00;;
7076;SDS011;3579;48.956;9.154;2023-05-16T12:02:51;1.93;;;1.73;;
7076;SDS011;3579;48.956;9.154;2023-05-16T12:05:18;2.43;;;2.23;;
7076;SDS011;3579;48.956;9.154;2023-05-16T12:07:49;1.93;;;1.73;;
7076;SDS011;3579;48.956;9.154;2023-05-16T12:10:18;2.23;;;1.90;;
7076;SDS011;3579;48.956;9.154;2023-05-16T12:12:45;2.20;;;1.90;;
7076;SDS011;3579;48.956;9.154;2023-05-16T12:15:13;2.10;;;1.90;;
7076;SDS011;3579;48.956;9.154;2023-05-16T12:17:40;2.07;;;1.87;;
7076;SDS011;3579;48.956;9.154;2023-05-16T12:20:07;2.20;;;2.00;;
7076;SDS011;3579;48.956;9.154;2023-05-16T12:22:47;2.03;;;1.87;;
7076;SDS011;3579;48.956;9.154;2023-05-16T12:28:01;1.93;;;1.83;;
7076;SDS011;3579;48.956;9.154;2023-05-16T12:30:28;2.20;;;1.73;;
7076;SDS011;3579;48.956;9.154;2023-05-16T12:35:23;2.10;;;1.90;;
7076;SDS011;3579;48.956;9.154;2023-05-16T12:37:59;1.67;;;1.57;;
7076;SDS011;3579;48.956;9.154;2023-05-16T12:40:28;1.97;;;1.70;;
7076;SDS011;3579;48.956;9.154;2023-05-16T12:42:54;1.80;;;1.70;;
7076;SDS011;3579;48.956;9.154;2023-05-16T12:45:21;1.70;;;1.60;;
7076;SDS011;3579;48.956;9.154;2023-05-16T12:47:48;1.60;;;1.50;;
7076;SDS011;3579;48.956;9.154;2023-05-16T12:50:14;2.67;;;1.80;;
7076;SDS011;3579;48.956;9.154;2023-05-16T12:52:45;1.70;;;1.60;;
7076;SDS011;3579;48.956;9.154;2023-05-16T12:55:19;1.87;;;1.77;;
7076;SDS011;3579;48.956;9.154;2023-05-16T12:57:46;2.07;;;1.70;;
7076;SDS011;3579;48.956;9.154;2023-05-16T13:00:14;1.97;;;1.80;;
7076;SDS011;3579;48.956;9.154;2023-05-16T13:02:45;2.70;;;1.67;;
7076;SDS011;3579;48.956;9.154;2023-05-16T13:05:13;1.70;;;1.60;;
7076;SDS011;3579;48.956;9.154;2023-05-16T13:07:39;1.70;;;1.60;;
7076;SDS011;3579;48.956;9.154;2023-05-16T13:10:06;1.90;;;1.60;;
7076;SDS011;3579;48.956;9.154;2023-05-16T13:12:38;1.80;;;1.70;;
7076;SDS011;3579;48.956;9.154;2023-05-16T13:15:05;1.87;;;1.77;;
7076;SDS011;3579;48.956;9.154;2023-05-16T13:17:33;1.70;;;1.60;;
7076;SDS011;3579;48.956;9.154;2023-05-16T13:19:59;2.00;;;1.70;;
7076;SDS011;3579;48.956;9.154;2023-05-16T13:22:27;1.70;;;1.50;;
7076;SDS011;3579;48.956;9.154;2023-05-16T13:24:55;2.03;;;1.60;;
7076;SDS011;3579;48.956;9.154;2023-05-16T13:27:21;1.73;;;1.63;;
7076;SDS011;3579;48.956;9.154;2023-05-16T13:29:47;1.80;;;1.70;;
7076;SDS011;3579;48.956;9.154;2023-05-16T13:32:13;1.70;;;1.60;;
7076;SDS011;3579;48.956;9.154;2023-05-16T13:34:39;1.70;;;1.60;;
7076;SDS011;3579;48.956;9.154;2023-05-16T13:37:05;1.97;;;1.40;;
7076;SDS011;3579;48.956;9.154;2023-05-16T13:39:31;1.50;;;1.40;;
7076;SDS011;3579;48.956;9.154;2023-05-16T13:41:57;1.70;;;1.60;;
7076;SDS011;3579;48.956;9.154;2023-05-16T13:44:24;1.63;;;1.53;;
7076;SDS011;3579;48.956;9.154;2023-05-16T13:46:51;2.33;;;1.70;;
7076;SDS011;3579;48.956;9.154;2023-05-16T13:49:17;2.03;;;1.50;;
7076;SDS011;3579;48.956;9.154;2023-05-16T13:51:43;1.73;;;1.63;;
7076;SDS011;3579;48.956;9.154;2023-05-16T13:54:09;1.83;;;1.70;;
7076;SDS011;3579;48.956;9.154;2023-05-16T13:56:35;1.60;;;1.40;;
7076;SDS011;3579;48.956;9.154;2023-05-16T13:59:02;1.60;;;1.50;;
7076;SDS011;3579;48.956;9.154;2023-05-16T14:01:28;1.70;;;1.60;;
7076;SDS011;3579;48.956;9.154;2023-05-16T14:03:54;1.50;;;1.40;;
7076;SDS011;3579;48.956;9.154;2023-05-16T14:06:20;2.23;;;1.50;;
7076;SDS011;3579;48.956;9.154;2023-05-16T14:08:46;1.90;;;1.70;;
7076;SDS011;3579;48.956;9.154;2023-05-16T14:11:12;1.93;;;1.67;;
7076;SDS011;3579;48.956;9.154;2023-05-16T14:13:38;1.57;;;1.47;;
7076;SDS011;3579;48.956;9.154;2023-05-16T14:16:05;1.60;;;1.50;;
7076;SDS011;3579;48.956;9.154;2023-05-16T14:18:31;2.10;;;1.63;;
7076;SDS011;3579;48.956;9.154;2023-05-16T14:20:57;1.50;;;1.40;;
7076;SDS011;3579;48.956;9.154;2023-05-16T14:23:23;1.90;;;1.67;;
7076;SDS011;3579;48.956;9.154;2023-05-16T14:25:50;1.87;;;1.60;;
7076;SDS011;3579;48.956;9.154;2023-05-16T14:28:16;1.63;;;1.33;;
7076;SDS011;3579;48.956;9.154;2023-05-16T14:30:42;1.60;;;1.50;;
7076;SDS011;3579;48.956;9.154;2023-05-16T14:33:08;1.63;;;1.53;;
7076;SDS011;3579;48.956;9.154;2023-05-16T14:35:35;1.63;;;1.50;;
7076;SDS011;3579;48.956;9.154;2023-05-16T14:38:03;1.47;;;1.37;;
7076;SDS011;3579;48.956;9.154;2023-05-16T14:40:29;1.60;;;1.50;;
7076;SDS011;3579;48.956;9.154;2023-05-16T14:42:55;1.60;;;1.50;;
7076;SDS011;3579;48.956;9.154;2023-05-16T14:45:21;1.60;;;1.50;;
7076;SDS011;3579;48.956;9.154;2023-05-16T14:47:47;1.50;;;1.40;;
7076;SDS011;3579;48.956;9.154;2023-05-16T14:50:13;1.40;;;1.30;;
7076;SDS011;3579;48.956;9.154;2023-05-16T14:52:39;1.60;;;1.50;;
7076;SDS011;3579;48.956;9.154;2023-05-16T14:55:05;1.57;;;1.40;;
7076;SDS011;3579;48.956;9.154;2023-05-16T14:57:31;1.67;;;1.47;;
7076;SDS011;3579;48.956;9.154;2023-05-16T14:59:57;1.90;;;1.40;;
7076;SDS011;3579;48.956;9.154;2023-05-16T15:02:23;1.90;;;1.50;;
7076;SDS011;3579;48.956;9.154;2023-05-16T15:04:51;1.73;;;1.50;;
7076;SDS011;3579;48.956;9.154;2023-05-16T15:07:19;2.00;;;1.63;;
7076;SDS011;3579;48.956;9.154;2023-05-16T15:09:45;1.47;;;1.37;;
7076;SDS011;3579;48.956;9.154;2023-05-16T15:12:11;2.17;;;1.80;;
7076;SDS011;3579;48.956;9.154;2023-05-16T15:14:37;2.60;;;1.40;;
7076;SDS011;3579;48.956;9.154;2023-05-16T15:17:03;1.57;;;1.40;;
7076;SDS011;3579;48.956;9.154;2023-05-16T15:19:29;2.00;;;1.50;;
7076;SDS011;3579;48.956;9.154;2023-05-16T15:21:55;1.50;;;1.40;;
7076;SDS011;3579;48.956;9.154;2023-05-16T15:24:23;1.30;;;1.20;;
7076;SDS011;3579;48.956;9.154;2023-05-16T15:26:49;1.53;;;1.30;;
7076;SDS011;3579;48.956;9.154;2023-05-16T15:29:15;1.47;;;1.37;;
7076;SDS011;3579;48.956;9.154;2023-05-16T15:31:43;1.67;;;1.50;;
7076;SDS011;3579;48.956;9.154;2023-05-16T15:34:09;2.33;;;1.60;;
7076;SDS011;3579;48.956;9.154;2023-05-16T15:36:36;1.60;;;1.40;;
7076;SDS011;3579;48.956;9.154;2023-05-16T15:39:02;1.40;;;1.30;;
7076;SDS011;3579;48.956;9.154;2023-05-16T15:41:28;1.60;;;1.40;;
7076;SDS011;3579;48.956;9.154;2023-05-16T15:43:54;1.40;;;1.30;;
7076;SDS011;3579;48.956;9.154;2023-05-16T15:46:20;1.33;;;1.23;;
7076;SDS011;3579;48.956;9.154;2023-05-16T15:48:46;1.73;;;1.47;;
7076;SDS011;3579;48.956;9.154;2023-05-16T15:51:12;1.77;;;1.50;;
7076;SDS011;3579;48.956;9.154;2023-05-16T15:53:40;1.40;;;1.30;;
7076;SDS011;3579;48.956;9.154;2023-05-16T15:56:07;1.40;;;1.30;;
7076;SDS011;3579;48.956;9.154;2023-05-16T15:58:34;1.30;;;1.20;;
7076;SDS011;3579;48.956;9.154;2023-05-16T16:01:00;1.40;;;1.30;;
7076;SDS011;3579;48.956;9.154;2023-05-16T16:03:27;1.50;;;1.40;;